createdAt,value
2023-01-03T00:01:57.997Z,95.12
2023-01-03T00:04:25.906Z,95.34
2023-01-03T00:06:53.662Z,96.51
2023-01-03T00:09:23.643Z,95.99
2023-01-03T00:11:53.211Z,95.76
2023-01-03T00:14:23.076Z,95.14
2023-01-03T00:16:57.248Z,95.38
2023-01-03T00:19:26.499Z,95.66
2023-01-03T00:21:54.779Z,95.77
2023-01-03T00:24:23.034Z,96.04
2023-01-03T00:26:51.204Z,96.12
2023-01-03T00:29:19.263Z,95.63
2023-01-03T00:31:47.488Z,95.84
2023-01-03T00:34:15.215Z,95.97
2023-01-03T00:36:43.317Z,95.79
2023-01-03T00:39:11.149Z,95.97
2023-01-03T00:41:39.479Z,96.15
2023-01-03T00:44:07.593Z,95.78
2023-01-03T00:46:35.779Z,95.92
2023-01-03T00:49:04.795Z,96.26
2023-01-03T00:51:34.978Z,96.38
2023-01-03T00:54:04.710Z,96.09
2023-01-03T00:56:35.607Z,95.87
2023-01-03T00:59:04.929Z,95.18
2023-01-03T01:01:46.136Z,95.25
2023-01-03T01:04:23.766Z,95.50
2023-01-03T01:07:00.317Z,95.95
2023-01-03T01:09:30.632Z,96.35
2023-01-03T01:11:58.592Z,96.39
2023-01-03T01:14:28.410Z,97.90
2023-01-03T01:17:01.866Z,97.87
2023-01-03T01:19:35.601Z,97.05
2023-01-03T01:22:03.523Z,97.23
2023-01-03T01:24:31.570Z,96.28
2023-01-03T01:27:00.073Z,95.87
2023-01-03T01:29:27.884Z,96.29
2023-01-03T01:31:55.805Z,96.12
2023-01-03T01:34:23.918Z,95.77
2023-01-03T01:36:51.790Z,96.22
2023-01-03T01:39:24.742Z,96.72
2023-01-03T01:41:59.322Z,96.28
2023-01-03T01:44:41.260Z,96.49
2023-01-03T01:47:14.850Z,97.16
2023-01-03T01:49:42.954Z,96.88
2023-01-03T01:52:11.352Z,96.49
2023-01-03T01:54:39.303Z,96.46
2023-01-03T01:57:08.388Z,96.62
2023-01-03T01:59:36.752Z,96.49
2023-01-03T02:02:04.531Z,96.71
2023-01-03T02:04:36.031Z,96.77
2023-01-03T02:07:04.258Z,96.86
2023-01-03T02:09:32.008Z,96.27
2023-01-03T02:12:22.395Z,95.90
2023-01-03T02:15:29.244Z,96.78
2023-01-03T02:18:21.577Z,97.26
2023-01-03T02:21:26.816Z,96.75
2023-01-03T02:24:00.093Z,96.29
2023-01-03T02:26:37.086Z,96.08
2023-01-03T02:29:30.725Z,96.35
2023-01-03T02:32:06.315Z,96.15
2023-01-03T02:34:49.824Z,96.76
2023-01-03T02:37:45.328Z,96.83
2023-01-03T02:40:25.399Z,97.13
2023-01-03T02:43:05.012Z,96.54
2023-01-03T02:45:51.125Z,96.58
2023-01-03T02:48:46.377Z,97.15
2023-01-03T02:51:22.351Z,97.11
2023-01-03T02:53:50.956Z,96.26
2023-01-03T02:56:25.480Z,96.75
2023-01-03T02:58:58.602Z,97.10
2023-01-03T03:01:29.549Z,96.81
2023-01-03T03:03:58.160Z,96.76
2023-01-03T03:06:38.553Z,97.84
2023-01-03T03:09:06.451Z,97.26
2023-01-03T03:11:36.781Z,97.21
2023-01-03T03:14:10.155Z,96.95
2023-01-03T03:16:51.218Z,96.87
2023-01-03T03:19:31.675Z,97.56
2023-01-03T03:21:59.689Z,97.62
2023-01-03T03:24:29.475Z,97.41
2023-01-03T03:26:58.841Z,97.37
2023-01-03T03:29:28.186Z,96.45
2023-01-03T03:31:56.725Z,97.84
2023-01-03T03:34:27.907Z,96.87
2023-01-03T03:37:17.904Z,97.15
2023-01-03T03:39:48.329Z,96.56
2023-01-03T03:42:22.207Z,96.87
2023-01-03T03:44:53.361Z,97.24
2023-01-03T03:47:40.072Z,97.58
2023-01-03T03:50:24.229Z,97.03
2023-01-03T03:52:57.546Z,97.07
2023-01-03T03:55:33.979Z,96.86
2023-01-03T03:58:14.613Z,97.01
2023-01-03T04:00:43.560Z,97.39
2023-01-03T04:03:12.729Z,97.10
2023-01-03T04:05:44.563Z,98.34
2023-01-03T04:08:12.459Z,97.35
2023-01-03T04:10:42.817Z,96.30
2023-01-03T04:13:10.477Z,96.77
2023-01-03T04:15:38.419Z,96.98
2023-01-03T04:18:06.084Z,96.86
2023-01-03T04:20:34.447Z,96.25
2023-01-03T04:23:02.287Z,97.88
2023-01-03T04:25:29.842Z,96.81
2023-01-03T04:27:57.571Z,96.56
2023-01-03T04:30:25.582Z,96.48
2023-01-03T04:32:53.220Z,96.19
2023-01-03T04:35:20.768Z,96.04
2023-01-03T04:37:48.809Z,96.12
2023-01-03T04:40:17.479Z,96.99
2023-01-03T04:42:45.206Z,95.78
2023-01-03T04:45:13.023Z,96.21
2023-01-03T04:47:41.109Z,96.07
2023-01-03T04:50:10.404Z,95.49
2023-01-03T04:52:38.363Z,95.10
2023-01-03T04:55:06.749Z,95.38
2023-01-03T04:57:35.164Z,95.05
2023-01-03T05:00:04.088Z,96.28
2023-01-03T05:02:32.873Z,95.56
2023-01-03T05:05:00.770Z,95.32
2023-01-03T05:07:29.017Z,95.59
2023-01-03T05:09:56.930Z,95.35
2023-01-03T05:12:25.593Z,95.26
2023-01-03T05:14:53.761Z,95.22
2023-01-03T05:17:21.718Z,94.63
2023-01-03T05:19:49.547Z,95.61
2023-01-03T05:22:17.787Z,95.71
2023-01-03T05:24:45.463Z,95.56
2023-01-03T05:27:13.183Z,96.20
2023-01-03T05:29:48.274Z,97.07
2023-01-03T05:32:16.261Z,95.83
2023-01-03T05:34:44.161Z,95.55
2023-01-03T05:37:11.712Z,94.82
2023-01-03T05:39:41.188Z,95.87
2023-01-03T05:42:09.158Z,95.95
2023-01-03T05:44:37.091Z,94.91
2023-01-03T05:47:05.335Z,94.75
2023-01-03T05:49:34.536Z,94.74
2023-01-03T05:52:02.982Z,94.25
2023-01-03T05:54:30.529Z,94.32
2023-01-03T05:56:58.437Z,93.91
2023-01-03T05:59:26.062Z,94.92
2023-01-03T06:01:53.909Z,94.70
2023-01-03T06:04:22.166Z,95.71
2023-01-03T06:06:49.908Z,94.59
2023-01-03T06:09:17.664Z,94.58
2023-01-03T06:11:45.534Z,93.96
2023-01-03T06:14:13.170Z,92.68
2023-01-03T06:16:40.854Z,93.46
2023-01-03T06:19:09.035Z,94.52
2023-01-03T06:21:37.145Z,92.72
2023-01-03T06:24:05.154Z,94.19
2023-01-03T06:26:33.736Z,93.49
2023-01-03T06:29:01.720Z,92.67
2023-01-03T06:31:29.461Z,92.55
2023-01-03T06:33:57.608Z,92.72
2023-01-03T06:36:25.305Z,92.68
2023-01-03T06:38:53.679Z,93.29
2023-01-03T06:41:21.805Z,93.63
2023-01-03T06:43:49.504Z,93.24
2023-01-03T06:46:17.441Z,92.66
2023-01-03T06:48:45.726Z,94.09
2023-01-03T06:51:16.357Z,93.44
2023-01-03T06:53:44.066Z,93.27
2023-01-03T06:56:12.511Z,93.57
2023-01-03T06:58:41.444Z,93.88
2023-01-03T07:01:09.928Z,93.62
2023-01-03T07:03:38.092Z,93.23
2023-01-03T07:06:05.848Z,93.49
2023-01-03T07:08:34.005Z,93.44
2023-01-03T07:11:02.445Z,93.87
2023-01-03T07:13:30.122Z,93.52
2023-01-03T07:15:58.195Z,94.70
2023-01-03T07:18:26.135Z,94.95
2023-01-03T07:20:53.908Z,94.83
2023-01-03T07:23:21.734Z,94.46
2023-01-03T07:25:49.614Z,93.50
2023-01-03T07:28:17.972Z,93.36
2023-01-03T07:30:46.103Z,93.44
2023-01-03T07:33:15.567Z,94.20
2023-01-03T07:35:43.399Z,94.14
2023-01-03T07:38:14.292Z,95.15
2023-01-03T07:40:42.885Z,95.79
2023-01-03T07:43:11.575Z,96.39
2023-01-03T07:45:43.103Z,95.39
2023-01-03T07:48:11.776Z,94.83
2023-01-03T07:50:40.579Z,93.53
2023-01-03T07:53:08.989Z,93.40
2023-01-03T07:55:37.745Z,92.97
2023-01-03T07:58:05.462Z,92.38
2023-01-03T08:00:37.132Z,92.15
2023-01-03T08:03:09.046Z,91.89
2023-01-03T08:05:41.125Z,92.01
2023-01-03T08:08:11.296Z,91.92
2023-01-03T08:10:39.162Z,92.25
2023-01-03T08:13:09.173Z,92.17
2023-01-03T08:15:39.704Z,91.94
2023-01-03T08:18:07.729Z,91.45
2023-01-03T08:20:35.511Z,91.33
2023-01-03T08:23:03.658Z,90.92
2023-01-03T08:25:31.617Z,89.88
2023-01-03T08:28:01.130Z,90.35
2023-01-03T08:30:29.598Z,90.17
2023-01-03T08:33:01.524Z,90.14
2023-01-03T08:35:32.739Z,89.69
2023-01-03T08:38:01.918Z,89.21
2023-01-03T08:40:36.699Z,88.95
2023-01-03T08:43:07.805Z,88.98
2023-01-03T08:45:35.875Z,90.12
2023-01-03T08:48:04.393Z,90.15
2023-01-03T08:50:33.164Z,90.08
2023-01-03T08:53:01.077Z,89.87
2023-01-03T08:55:28.812Z,89.70
2023-01-03T08:57:56.745Z,89.83
2023-01-03T09:00:28.443Z,89.38
2023-01-03T09:02:59.686Z,89.56
2023-01-03T09:05:28.411Z,89.34
2023-01-03T09:07:56.058Z,88.09
2023-01-03T09:10:26.738Z,88.64
2023-01-03T09:12:54.878Z,88.81
2023-01-03T09:15:22.742Z,88.91
2023-01-03T09:17:50.758Z,88.46
2023-01-03T09:20:21.775Z,88.41
2023-01-03T09:22:51.857Z,87.45
2023-01-03T09:25:21.952Z,87.57
2023-01-03T09:27:51.446Z,87.62
2023-01-03T09:30:20.922Z,86.75
2023-01-03T09:32:51.835Z,86.84
2023-01-03T09:35:19.934Z,87.36
2023-01-03T09:37:49.277Z,86.23
2023-01-03T09:40:18.312Z,85.96
2023-01-03T09:42:46.408Z,86.28
2023-01-03T09:45:17.315Z,86.79
2023-01-03T09:47:45.035Z,86.20
2023-01-03T09:50:44.276Z,86.13
2023-01-03T09:53:17.858Z,86.60
2023-01-03T09:55:54.800Z,86.34
2023-01-03T09:58:22.725Z,85.44
2023-01-03T10:00:52.009Z,86.55
2023-01-03T10:03:38.587Z,86.43
2023-01-03T10:06:18.070Z,85.96
2023-01-03T10:08:58.978Z,86.79
2023-01-03T10:11:50.934Z,85.75
2023-01-03T10:14:38.031Z,84.89
2023-01-03T10:17:38.790Z,85.12
2023-01-03T10:20:23.277Z,84.11
2023-01-03T10:22:54.951Z,84.79
2023-01-03T10:25:23.836Z,84.73
2023-01-03T10:28:00.209Z,84.31
2023-01-03T10:30:28.620Z,83.45
2023-01-03T10:33:11.208Z,83.18
2023-01-03T10:35:39.197Z,83.06
2023-01-03T10:38:07.922Z,82.75
2023-01-03T10:40:52.290Z,83.91
2023-01-03T10:43:32.727Z,83.75
2023-01-03T10:46:03.599Z,83.67
2023-01-03T10:49:25.414Z,83.05
2023-01-03T10:51:42.282Z,83.09
2023-01-03T10:54:34.375Z,83.16
2023-01-03T10:57:05.692Z,83.01
2023-01-03T10:59:35.335Z,82.48
2023-01-03T11:02:16.134Z,82.03
2023-01-03T11:04:44.692Z,81.54
2023-01-03T11:07:15.620Z,80.49
2023-01-03T11:09:54.139Z,81.31
2023-01-03T11:12:38.298Z,82.06
2023-01-03T11:15:20.134Z,81.90
2023-01-03T11:17:56.170Z,80.01
2023-01-03T11:20:35.820Z,79.36
2023-01-03T11:23:08.557Z,78.40
2023-01-03T11:25:45.459Z,76.62
2023-01-03T11:28:41.412Z,76.58
2023-01-03T11:31:30.905Z,76.43
2023-01-03T11:35:11.614Z,75.60
2023-01-03T11:37:27.115Z,75.21
2023-01-03T11:40:17.562Z,76.45
2023-01-03T11:42:58.012Z,74.29
2023-01-03T11:46:07.354Z,74.36
2023-01-03T11:48:41.555Z,72.90
2023-01-03T11:51:40.508Z,71.29
2023-01-03T11:54:28.948Z,71.59
2023-01-03T11:56:58.943Z,72.33
2023-01-03T11:59:35.460Z,70.72
2023-01-03T12:02:24.957Z,71.44
2023-01-03T12:05:17.510Z,70.69
2023-01-03T12:08:01.230Z,71.94
2023-01-03T12:10:53.056Z,70.13
2023-01-03T12:13:45.667Z,70.47
2023-01-03T12:16:23.734Z,70.39
2023-01-03T12:19:08.439Z,69.77
2023-01-03T12:21:45.721Z,71.81
2023-01-03T12:24:28.642Z,71.35
2023-01-03T12:27:02.539Z,71.20
2023-01-03T12:29:38.885Z,71.19
2023-01-03T12:32:12.022Z,71.09
2023-01-03T12:34:47.214Z,72.06
2023-01-03T12:37:27.108Z,72.07
2023-01-03T12:40:01.885Z,73.19
2023-01-03T12:42:48.380Z,72.50
2023-01-03T12:45:27.296Z,72.77
2023-01-03T12:48:07.006Z,73.53
2023-01-03T12:50:40.868Z,73.32
2023-01-03T12:53:18.113Z,73.07
2023-01-03T12:56:11.602Z,73.94
2023-01-03T12:58:51.602Z,72.98
2023-01-03T13:01:34.294Z,71.76
2023-01-03T13:04:10.243Z,73.20
2023-01-03T13:06:41.836Z,72.29
2023-01-03T13:09:43.750Z,72.80
2023-01-03T13:12:23.764Z,73.16
2023-01-03T13:15:02.067Z,72.83
2023-01-03T13:17:42.502Z,72.75
2023-01-03T13:20:29.395Z,72.55
2023-01-03T13:22:58.566Z,73.53
2023-01-03T13:25:26.434Z,73.37
2023-01-03T13:27:56.494Z,73.32
2023-01-03T13:30:30.129Z,73.91
2023-01-03T13:33:10.149Z,73.50
2023-01-03T13:35:43.999Z,74.13
2023-01-03T13:38:25.821Z,74.29
2023-01-03T13:41:19.294Z,74.53
2023-01-03T13:43:50.829Z,75.73
2023-01-03T13:46:23.123Z,74.82
2023-01-03T13:48:56.221Z,74.10
2023-01-03T13:51:39.520Z,73.85
2023-01-03T13:54:10.685Z,74.48
2023-01-03T13:56:44.135Z,74.39
2023-01-03T13:59:15.395Z,74.70
2023-01-03T14:01:43.105Z,74.11
2023-01-03T14:04:29.773Z,74.81
2023-01-03T14:06:57.391Z,75.38
2023-01-03T14:09:32.137Z,77.07
2023-01-03T14:12:29.042Z,76.12
2023-01-03T14:14:58.285Z,75.88
2023-01-03T14:17:30.684Z,75.88
2023-01-03T14:20:04.746Z,76.55
2023-01-03T14:22:38.480Z,76.62
2023-01-03T14:25:07.006Z,76.27
2023-01-03T14:27:40.912Z,76.04
2023-01-03T14:30:21.591Z,77.12
2023-01-03T14:32:50.144Z,77.07
2023-01-03T14:35:40.809Z,76.75
2023-01-03T14:38:29.547Z,77.58
2023-01-03T14:41:01.938Z,77.26
2023-01-03T14:43:31.233Z,78.93
2023-01-03T14:46:05.830Z,78.24
2023-01-03T14:48:33.992Z,78.24
2023-01-03T14:51:03.525Z,78.03
2023-01-03T14:53:32.682Z,77.28
2023-01-03T14:56:01.037Z,77.81
2023-01-03T14:58:38.882Z,77.67
2023-01-03T15:01:08.390Z,77.90
2023-01-03T15:03:39.434Z,79.19
2023-01-03T15:06:31.187Z,77.63
2023-01-03T15:09:12.038Z,78.76
2023-01-03T15:11:41.815Z,77.96
2023-01-03T15:14:13.009Z,78.96
2023-01-03T15:16:42.191Z,78.62
2023-01-03T15:19:27.210Z,78.86
2023-01-03T15:22:06.521Z,79.02
2023-01-03T15:24:43.263Z,79.29
2023-01-03T15:27:33.030Z,79.49
2023-01-03T15:30:17.284Z,78.66
2023-01-03T15:33:00.516Z,79.41
2023-01-03T15:35:41.721Z,80.12
2023-01-03T15:38:30.745Z,80.13
2023-01-03T15:40:59.243Z,80.59
2023-01-03T15:43:33.205Z,81.25
2023-01-03T15:46:21.398Z,80.99
2023-01-03T15:48:54.723Z,80.28
2023-01-03T15:51:22.806Z,80.77
2023-01-03T15:53:50.506Z,80.87
2023-01-03T15:56:29.532Z,81.79
2023-01-03T15:58:57.786Z,81.74
2023-01-03T16:01:25.850Z,81.12
2023-01-03T16:03:54.327Z,80.96
2023-01-03T16:06:22.345Z,81.96
2023-01-03T16:08:50.251Z,82.02
2023-01-03T16:11:28.227Z,81.59
2023-01-03T16:13:59.276Z,80.71
2023-01-03T16:16:33.388Z,80.61
2023-01-03T16:19:01.357Z,81.22
2023-01-03T16:21:29.928Z,81.57
2023-01-03T16:23:57.536Z,81.95
2023-01-03T16:26:25.428Z,82.45
2023-01-03T16:28:53.421Z,82.24
2023-01-03T16:31:28.494Z,82.18
2023-01-03T16:33:56.588Z,82.47
2023-01-03T16:36:26.278Z,82.46
2023-01-03T16:38:54.032Z,82.57
2023-01-03T16:41:22.423Z,82.67
2023-01-03T16:43:50.280Z,82.87
2023-01-03T16:46:21.167Z,83.04
2023-01-03T16:48:49.794Z,83.03
2023-01-03T16:51:20.984Z,83.08
2023-01-03T16:53:49.139Z,83.16
2023-01-03T16:56:17.103Z,83.50
2023-01-03T16:58:45.108Z,84.03
2023-01-03T17:01:13.403Z,83.66
2023-01-03T17:03:42.347Z,83.72
2023-01-03T17:06:37.107Z,83.95
2023-01-03T17:09:16.477Z,84.08
2023-01-03T17:11:44.662Z,84.03
2023-01-03T17:14:19.565Z,83.33
2023-01-03T17:16:48.296Z,83.29
2023-01-03T17:20:02.701Z,84.10
2023-01-03T17:22:15.251Z,84.06
2023-01-03T17:24:43.450Z,84.27
2023-01-03T17:27:17.409Z,84.46
2023-01-03T17:29:47.048Z,84.88
2023-01-03T17:32:19.774Z,84.43
2023-01-03T17:34:47.761Z,83.84
2023-01-03T17:37:17.757Z,84.83
2023-01-03T17:39:49.853Z,84.99
2023-01-03T17:42:20.568Z,84.72
2023-01-03T17:44:52.037Z,85.10
2023-01-03T17:47:23.295Z,84.69
2023-01-03T17:49:54.881Z,85.30
2023-01-03T17:52:24.607Z,85.99
2023-01-03T17:54:52.414Z,86.14
2023-01-03T17:57:20.171Z,85.87
2023-01-03T17:59:48.216Z,85.74
2023-01-03T18:02:22.293Z,85.45
2023-01-03T18:05:15.067Z,85.90
2023-01-03T18:07:39.021Z,86.05
2023-01-03T18:10:18.203Z,85.53
2023-01-03T18:12:45.930Z,86.00
2023-01-03T18:15:19.557Z,86.09
2023-01-03T18:17:48.334Z,86.24
2023-01-03T18:20:18.820Z,86.60
2023-01-03T18:22:47.335Z,86.47
2023-01-03T18:25:22.113Z,86.33
2023-01-03T18:27:56.783Z,86.45
2023-01-03T18:30:25.037Z,86.71
2023-01-03T18:32:53.115Z,86.25
2023-01-03T18:35:28.384Z,86.21
2023-01-03T18:37:58.016Z,86.95
2023-01-03T18:40:26.452Z,87.23
2023-01-03T18:42:59.101Z,86.86
2023-01-03T18:45:27.168Z,86.87
2023-01-03T18:47:54.915Z,86.55
2023-01-03T18:50:25.929Z,87.08
2023-01-03T18:52:54.418Z,86.72
2023-01-03T18:55:27.828Z,86.69
2023-01-03T18:57:56.782Z,86.67
2023-01-03T19:00:27.203Z,86.96
2023-01-03T19:02:55.475Z,87.05
2023-01-03T19:05:23.739Z,86.78
2023-01-03T19:07:52.017Z,87.01
2023-01-03T19:10:23.849Z,86.65
2023-01-03T19:12:54.043Z,86.24
2023-01-03T19:15:25.377Z,86.63
2023-01-03T19:17:53.079Z,86.17
2023-01-03T19:20:26.537Z,86.74
2023-01-03T19:22:55.182Z,86.58
2023-01-03T19:25:30.234Z,86.81
2023-01-03T19:28:00.832Z,87.25
2023-01-03T19:30:38.275Z,87.52
2023-01-03T19:33:11.969Z,87.27
2023-01-03T19:35:40.074Z,87.38
2023-01-03T19:38:08.673Z,86.92
2023-01-03T19:40:39.003Z,86.74
2023-01-03T19:43:18.564Z,87.12
2023-01-03T19:45:46.742Z,87.24
2023-01-03T19:48:21.535Z,87.58
2023-01-03T19:50:50.611Z,87.48
2023-01-03T19:53:18.724Z,86.72
2023-01-03T19:55:47.843Z,86.21
2023-01-03T19:58:25.725Z,86.15
2023-01-03T20:00:54.339Z,86.32
2023-01-03T20:03:33.417Z,86.25
2023-01-03T20:06:01.884Z,86.18
2023-01-03T20:08:30.085Z,85.95
2023-01-03T20:10:59.288Z,86.20
2023-01-03T20:13:27.615Z,85.66
2023-01-03T20:15:56.826Z,86.38
2023-01-03T20:18:33.331Z,86.43
2023-01-03T20:21:06.518Z,86.36
2023-01-03T20:23:41.285Z,86.63
2023-01-03T20:26:19.413Z,86.66
2023-01-03T20:28:47.508Z,86.86
2023-01-03T20:31:20.801Z,86.55
2023-01-03T20:33:51.533Z,86.37
2023-01-03T20:36:23.813Z,86.27
2023-01-03T20:38:55.915Z,85.99
2023-01-03T20:41:25.844Z,86.55
2023-01-03T20:43:53.841Z,86.68
2023-01-03T20:46:22.456Z,87.14
2023-01-03T20:48:55.806Z,86.50
2023-01-03T20:51:27.018Z,86.63
2023-01-03T20:53:56.337Z,86.72
2023-01-03T20:56:26.232Z,86.97
2023-01-03T20:58:53.845Z,86.90
2023-01-03T21:01:21.947Z,87.08
2023-01-03T21:03:49.772Z,87.46
2023-01-03T21:06:25.593Z,87.28
2023-01-03T21:08:53.657Z,87.44
2023-01-03T21:11:27.641Z,87.44
2023-01-03T21:13:57.011Z,87.42
2023-01-03T21:16:35.801Z,87.56
2023-01-03T21:19:23.325Z,87.05
2023-01-03T21:21:52.752Z,87.25
2023-01-03T21:24:22.620Z,86.97
2023-01-03T21:26:50.636Z,87.27
2023-01-03T21:29:18.673Z,86.75
2023-01-03T21:31:46.988Z,87.49
2023-01-03T21:34:19.925Z,87.71
2023-01-03T21:36:48.454Z,87.64
2023-01-03T21:39:16.872Z,87.80
2023-01-03T21:41:45.582Z,87.93
2023-01-03T21:44:13.521Z,87.81
2023-01-03T21:46:42.031Z,88.08
2023-01-03T21:49:09.594Z,88.40
2023-01-03T21:51:39.200Z,87.91
2023-01-03T21:54:08.277Z,87.84
2023-01-03T21:56:37.350Z,88.10
2023-01-03T21:59:05.473Z,88.75
2023-01-03T22:01:33.164Z,88.07
2023-01-03T22:04:01.258Z,87.86
2023-01-03T22:06:28.962Z,87.72
2023-01-03T22:08:56.687Z,87.58
2023-01-03T22:11:25.049Z,87.53
2023-01-03T22:13:55.076Z,87.42
2023-01-03T22:16:23.090Z,87.51
2023-01-03T22:18:51.136Z,87.40
2023-01-03T22:21:19.224Z,87.41
2023-01-03T22:23:46.910Z,87.05
2023-01-03T22:26:15.989Z,86.93
2023-01-03T22:28:45.609Z,86.76
2023-01-03T22:31:14.920Z,86.39
2023-01-03T22:33:44.251Z,85.71
2023-01-03T22:36:14.931Z,84.91
2023-01-03T22:38:43.483Z,84.68
2023-01-03T22:41:14.519Z,84.19
2023-01-03T22:43:42.719Z,83.99
2023-01-03T22:46:15.815Z,83.73
2023-01-03T22:48:44.127Z,84.03
2023-01-03T22:51:13.905Z,83.70
2023-01-03T22:53:43.163Z,85.17
2023-01-03T22:56:13.316Z,84.56
2023-01-03T22:58:41.716Z,84.69
2023-01-03T23:01:12.577Z,83.77
2023-01-03T23:03:41.293Z,84.29
2023-01-03T23:06:12.152Z,85.20
2023-01-03T23:08:40.030Z,85.68
2023-01-03T23:11:13.692Z,85.03
2023-01-03T23:13:41.825Z,84.40
2023-01-03T23:16:09.569Z,84.85
2023-01-03T23:18:37.484Z,84.47
2023-01-03T23:21:06.145Z,83.85
2023-01-03T23:23:33.863Z,83.92
2023-01-03T23:26:02.735Z,84.46
2023-01-03T23:28:31.104Z,83.91
2023-01-03T23:30:58.835Z,83.59
2023-01-03T23:33:26.412Z,82.97
2023-01-03T23:35:54.417Z,82.93
2023-01-03T23:38:22.167Z,82.83
2023-01-03T23:40:49.830Z,82.54
2023-01-03T23:43:17.912Z,82.52
2023-01-03T23:45:45.651Z,82.48
2023-01-03T23:48:13.474Z,82.89
2023-01-03T23:50:45.745Z,82.57
2023-01-03T23:53:13.388Z,82.26
2023-01-03T23:55:41.414Z,82.20
2023-01-03T23:58:09.606Z,82.27
